createdAt,value
2023-09-08T00:01:15.630Z,78.49
2023-09-08T00:03:42.708Z,79.49
2023-09-08T00:06:09.702Z,80.67
2023-09-08T00:08:36.923Z,81.32
2023-09-08T00:11:04.190Z,82.25
2023-09-08T00:13:31.347Z,83.32
2023-09-08T00:15:58.403Z,84.30
2023-09-08T00:18:25.344Z,85.44
2023-09-08T00:20:52.339Z,85.73
2023-09-08T00:23:19.260Z,87.25
2023-09-08T00:25:46.293Z,89.08
2023-09-08T00:28:13.468Z,89.14
2023-09-08T00:30:40.618Z,89.73
2023-09-08T00:33:10.175Z,90.23
2023-09-08T00:35:37.397Z,89.61
2023-09-08T00:38:04.679Z,89.52
2023-09-08T00:40:37.995Z,89.50
2023-09-08T00:43:08.342Z,89.31
2023-09-08T00:45:41.518Z,89.18
2023-09-08T00:48:09.250Z,87.78
2023-09-08T00:50:37.794Z,87.67
2023-09-08T00:53:07.083Z,87.70
2023-09-08T00:55:34.221Z,86.20
2023-09-08T00:58:02.113Z,85.82
2023-09-08T01:00:29.394Z,84.96
2023-09-08T01:02:56.498Z,85.55
2023-09-08T01:05:23.588Z,84.74
2023-09-08T01:07:53.105Z,84.42
2023-09-08T01:10:20.419Z,83.80
2023-09-08T01:12:47.632Z,82.88
2023-09-08T01:15:14.733Z,83.08
2023-09-08T01:17:41.863Z,83.35
2023-09-08T01:20:22.763Z,83.36
2023-09-08T01:23:35.778Z,83.29
2023-09-08T01:26:22.799Z,84.08
2023-09-08T01:28:51.399Z,84.34
2023-09-08T01:31:19.289Z,84.89
2023-09-08T01:33:46.925Z,85.04
2023-09-08T01:36:15.308Z,86.49
2023-09-08T01:38:42.328Z,87.80
2023-09-08T01:41:09.288Z,88.19
2023-09-08T01:43:36.358Z,87.67
2023-09-08T01:46:03.490Z,87.18
2023-09-08T01:48:30.476Z,86.93
2023-09-08T01:50:58.493Z,86.83
2023-09-08T01:53:25.443Z,87.49
2023-09-08T01:55:52.461Z,87.89
2023-09-08T01:59:18.114Z,87.64
2023-09-08T02:01:45.217Z,86.83
2023-09-08T02:04:12.285Z,86.30
2023-09-08T02:06:39.258Z,86.69
2023-09-08T02:09:06.200Z,87.52
2023-09-08T02:11:33.165Z,87.88
2023-09-08T02:14:00.240Z,88.21
2023-09-08T02:16:27.294Z,89.01
2023-09-08T02:18:54.397Z,88.98
2023-09-08T02:21:22.702Z,88.67
2023-09-08T02:23:49.693Z,89.02
2023-09-08T02:26:17.039Z,88.87
2023-09-08T02:28:44.445Z,89.67
2023-09-08T02:31:11.813Z,90.49
2023-09-08T02:33:39.099Z,91.35
2023-09-08T02:36:07.126Z,92.09
2023-09-08T02:38:35.854Z,92.52
2023-09-08T02:41:03.099Z,92.88
2023-09-08T02:43:30.725Z,93.91
2023-09-08T02:45:58.621Z,94.63
2023-09-08T02:48:26.235Z,95.74
2023-09-08T02:50:55.227Z,96.82
2023-09-08T02:53:22.445Z,97.86
2023-09-08T02:55:50.510Z,99.86
2023-09-08T02:58:17.506Z,100.00
2023-09-08T03:00:44.556Z,100.00
2023-09-08T03:03:11.519Z,100.00
2023-09-08T03:05:38.736Z,100.00
2023-09-08T03:08:06.537Z,100.00
2023-09-08T03:10:35.662Z,100.00
2023-09-08T03:13:04.722Z,100.00
2023-09-08T03:15:31.814Z,100.00
2023-09-08T03:18:00.381Z,100.00
2023-09-08T03:20:27.727Z,100.00
2023-09-08T03:22:56.250Z,100.00
2023-09-08T03:25:23.240Z,100.00
2023-09-08T03:27:50.328Z,100.00
2023-09-08T03:30:17.389Z,100.00
2023-09-08T03:32:44.561Z,100.00
2023-09-08T03:35:11.622Z,100.00
2023-09-08T03:37:39.477Z,100.00
2023-09-08T03:40:08.168Z,100.00
2023-09-08T03:42:36.075Z,100.00
2023-09-08T03:45:03.657Z,100.00
2023-09-08T03:47:30.766Z,100.00
2023-09-08T03:49:57.936Z,100.00
2023-09-08T03:52:25.322Z,100.00
2023-09-08T03:54:52.232Z,100.00
2023-09-08T03:57:19.388Z,100.00
2023-09-08T03:59:46.414Z,100.00
2023-09-08T04:02:13.654Z,100.00
2023-09-08T04:04:40.712Z,100.00
2023-09-08T04:07:09.183Z,100.00
2023-09-08T04:09:36.197Z,100.00
2023-09-08T04:12:03.401Z,100.00
2023-09-08T04:14:31.715Z,100.00
2023-09-08T04:16:58.688Z,100.00
2023-09-08T04:19:25.829Z,100.00
2023-09-08T04:21:52.797Z,100.00
2023-09-08T04:24:21.323Z,100.00
2023-09-08T04:26:48.370Z,100.00
2023-09-08T04:29:15.369Z,100.00
2023-09-08T04:31:42.373Z,100.00
2023-09-08T04:34:09.471Z,100.00
2023-09-08T04:36:36.562Z,100.00
2023-09-08T04:39:03.754Z,100.00
2023-09-08T04:41:30.825Z,100.00
2023-09-08T04:43:59.422Z,100.00
2023-09-08T04:46:26.709Z,100.00
2023-09-08T04:48:53.953Z,100.00
2023-09-08T04:51:23.196Z,100.00
2023-09-08T04:53:50.621Z,100.00
2023-09-08T04:56:17.718Z,100.00
2023-09-08T04:58:45.092Z,100.00
2023-09-08T05:01:13.572Z,100.00
2023-09-08T05:03:41.041Z,100.00
2023-09-08T05:06:09.271Z,100.00
2023-09-08T05:08:36.572Z,100.00
2023-09-08T05:11:04.455Z,100.00
2023-09-08T05:13:32.532Z,100.00
2023-09-08T05:16:12.508Z,100.00
2023-09-08T05:18:44.556Z,100.00
2023-09-08T05:21:11.868Z,100.00
2023-09-08T05:23:39.025Z,100.00
2023-09-08T05:26:06.445Z,100.00
2023-09-08T05:28:37.169Z,100.00
2023-09-08T05:31:06.831Z,100.00
2023-09-08T05:33:35.345Z,100.00
2023-09-08T05:36:03.457Z,100.00
2023-09-08T05:38:30.656Z,100.00
2023-09-08T05:40:57.757Z,100.00
2023-09-08T05:43:26.895Z,100.00
2023-09-08T05:45:55.377Z,100.00
2023-09-08T05:48:22.428Z,100.00
2023-09-08T05:50:49.725Z,100.00
2023-09-08T05:53:16.960Z,99.82
2023-09-08T05:55:44.831Z,98.68
2023-09-08T05:58:12.153Z,98.05
2023-09-08T06:00:39.386Z,97.92
2023-09-08T06:03:07.293Z,97.30
2023-09-08T06:05:34.733Z,96.54
2023-09-08T06:08:07.059Z,94.44
2023-09-08T06:10:38.364Z,93.25
2023-09-08T06:13:06.133Z,92.62
2023-09-08T06:15:33.451Z,91.99
2023-09-08T06:18:00.837Z,89.63
2023-09-08T06:20:28.402Z,88.67
2023-09-08T06:22:56.122Z,88.12
2023-09-08T06:25:23.560Z,86.20
2023-09-08T06:27:50.676Z,85.64
2023-09-08T06:30:19.528Z,84.40
2023-09-08T06:32:46.900Z,81.40
2023-09-08T06:35:14.168Z,79.62
2023-09-08T06:37:41.251Z,76.29
2023-09-08T06:40:09.421Z,76.43
2023-09-08T06:42:36.458Z,73.62
2023-09-08T06:45:32.530Z,69.81
2023-09-08T06:48:01.358Z,69.72
2023-09-08T06:50:30.618Z,69.00
2023-09-08T06:52:57.949Z,67.00
2023-09-08T06:55:25.096Z,67.40
2023-09-08T06:57:52.344Z,66.19
2023-09-08T07:00:21.697Z,63.85
2023-09-08T07:02:50.811Z,63.18
2023-09-08T07:05:18.817Z,61.20
2023-09-08T07:07:50.716Z,60.20
2023-09-08T07:10:18.138Z,59.35
2023-09-08T07:12:45.482Z,58.86
2023-09-08T07:15:12.525Z,58.47
2023-09-08T07:17:39.574Z,58.36
2023-09-08T07:20:07.791Z,56.59
2023-09-08T07:22:35.037Z,56.54
2023-09-08T07:25:02.119Z,56.74
2023-09-08T07:27:29.297Z,54.54
2023-09-08T07:29:56.767Z,53.45
2023-09-08T07:32:26.255Z,52.36
2023-09-08T07:34:57.096Z,50.44
2023-09-08T07:37:26.596Z,49.22
2023-09-08T07:39:53.633Z,49.69
2023-09-08T07:42:21.040Z,49.43
2023-09-08T07:44:49.472Z,48.51
2023-09-08T07:47:16.504Z,48.70
2023-09-08T07:49:47.937Z,46.88
2023-09-08T07:52:15.114Z,46.31
2023-09-08T07:54:42.135Z,46.71
2023-09-08T07:57:09.301Z,46.99
2023-09-08T07:59:38.004Z,46.82
2023-09-08T08:02:05.290Z,45.74
2023-09-08T08:04:32.422Z,45.62
2023-09-08T08:06:59.623Z,44.94
2023-09-08T08:09:26.765Z,44.40
2023-09-08T08:11:53.889Z,43.68
2023-09-08T08:14:20.936Z,42.52
2023-09-08T08:16:48.119Z,42.39
2023-09-08T08:19:15.143Z,40.76
2023-09-08T08:21:43.615Z,41.40
2023-09-08T08:24:11.681Z,42.11
2023-09-08T08:26:38.722Z,41.84
2023-09-08T08:29:05.764Z,41.87
2023-09-08T08:31:34.616Z,41.22
2023-09-08T08:34:01.648Z,40.06
2023-09-08T08:36:28.661Z,40.14
2023-09-08T08:38:55.678Z,38.26
2023-09-08T08:41:22.633Z,39.06
2023-09-08T08:43:51.791Z,39.21
2023-09-08T08:46:19.828Z,38.53
2023-09-08T08:48:47.971Z,39.42
2023-09-08T08:51:19.245Z,38.43
2023-09-08T08:53:46.353Z,38.56
2023-09-08T08:56:16.742Z,38.78
2023-09-08T08:58:43.805Z,39.61
2023-09-08T09:01:12.675Z,38.54
2023-09-08T09:03:41.577Z,38.05
2023-09-08T09:06:08.826Z,38.41
2023-09-08T09:08:38.565Z,37.82
2023-09-08T09:11:05.646Z,37.80
2023-09-08T09:13:32.616Z,38.67
2023-09-08T09:16:01.549Z,38.61
2023-09-08T09:18:31.492Z,37.79
2023-09-08T09:21:02.547Z,37.92
2023-09-08T09:23:34.193Z,37.88
2023-09-08T09:26:05.284Z,37.70
2023-09-08T09:28:32.925Z,38.43
2023-09-08T09:31:00.776Z,38.28
2023-09-08T09:33:29.435Z,38.00
2023-09-08T09:35:56.551Z,37.75
2023-09-08T09:38:23.666Z,37.20
2023-09-08T09:40:51.028Z,37.28
2023-09-08T09:43:21.797Z,37.49
2023-09-08T09:45:48.986Z,37.05
2023-09-08T09:48:16.917Z,38.10
2023-09-08T09:50:46.649Z,36.90
2023-09-08T09:53:16.051Z,37.27
2023-09-08T09:55:45.359Z,38.08
2023-09-08T09:58:13.680Z,38.42
2023-09-08T10:00:42.437Z,37.78
2023-09-08T10:03:10.629Z,37.87
2023-09-08T10:05:38.712Z,37.65
2023-09-08T10:08:06.590Z,37.92
2023-09-08T10:10:35.808Z,37.18
2023-09-08T10:13:07.679Z,36.79
2023-09-08T10:15:35.014Z,36.89
2023-09-08T10:18:05.875Z,37.30
2023-09-08T10:20:34.662Z,37.48
2023-09-08T10:23:23.948Z,37.50
2023-09-08T10:25:58.090Z,36.89
2023-09-08T10:28:26.175Z,36.38
2023-09-08T10:30:54.544Z,36.53
2023-09-08T10:33:22.269Z,36.67
2023-09-08T10:35:49.495Z,36.50
2023-09-08T10:38:34.278Z,37.05
2023-09-08T10:41:37.139Z,36.81
2023-09-08T10:44:08.960Z,36.75
2023-09-08T10:46:38.088Z,35.98
2023-09-08T10:49:08.433Z,36.04
2023-09-08T10:51:36.594Z,35.56
2023-09-08T10:54:04.656Z,35.55
2023-09-08T10:56:52.429Z,35.25
2023-09-08T10:59:19.470Z,33.97
2023-09-08T11:01:48.827Z,34.31
2023-09-08T11:04:20.480Z,33.66
2023-09-08T11:06:47.698Z,33.01
2023-09-08T11:09:15.469Z,33.51
2023-09-08T11:11:43.523Z,33.46
2023-09-08T11:14:10.499Z,32.11
2023-09-08T11:16:37.637Z,32.04
2023-09-08T11:19:06.290Z,31.84
2023-09-08T11:21:36.830Z,31.96
2023-09-08T11:24:06.068Z,31.95
2023-09-08T11:26:36.125Z,31.80
2023-09-08T11:29:04.255Z,31.79
2023-09-08T11:31:31.503Z,30.97
2023-09-08T11:34:00.804Z,30.47
2023-09-08T11:36:27.840Z,30.76
2023-09-08T11:38:55.059Z,30.93
2023-09-08T11:41:25.120Z,30.62
2023-09-08T11:43:53.307Z,29.96
2023-09-08T11:46:20.952Z,30.78
2023-09-08T11:48:48.308Z,29.49
2023-09-08T11:51:15.382Z,29.47
2023-09-08T11:53:42.689Z,29.35
2023-09-08T11:56:09.905Z,29.16
2023-09-08T11:58:37.662Z,28.38
2023-09-08T12:01:05.927Z,28.29
2023-09-08T12:03:33.238Z,28.08
2023-09-08T12:06:01.458Z,28.20
2023-09-08T12:08:28.596Z,28.06
2023-09-08T12:10:55.770Z,27.65
2023-09-08T12:13:24.427Z,27.75
2023-09-08T12:15:51.608Z,27.31
2023-09-08T12:18:18.759Z,27.65
2023-09-08T12:20:46.282Z,26.85
2023-09-08T12:23:23.457Z,26.55
2023-09-08T12:25:53.149Z,26.86
2023-09-08T12:28:24.938Z,26.11
2023-09-08T12:30:52.483Z,26.08
2023-09-08T12:33:22.316Z,25.93
2023-09-08T12:35:54.828Z,25.87
2023-09-08T12:38:21.851Z,25.87
2023-09-08T12:40:49.486Z,25.17
2023-09-08T12:43:26.133Z,25.54
2023-09-08T12:45:58.742Z,25.86
2023-09-08T12:48:26.161Z,25.59
2023-09-08T12:50:54.742Z,26.08
2023-09-08T12:53:22.996Z,26.21
2023-09-08T12:55:50.380Z,25.56
2023-09-08T12:58:18.432Z,26.37
2023-09-08T13:00:45.850Z,27.07
2023-09-08T13:03:13.136Z,27.54
2023-09-08T13:05:40.689Z,27.39
2023-09-08T13:08:08.251Z,27.49
2023-09-08T13:10:35.350Z,27.76
2023-09-08T13:13:02.493Z,27.24
2023-09-08T13:15:32.689Z,27.66
2023-09-08T13:17:59.852Z,26.83
2023-09-08T13:20:27.003Z,26.94
2023-09-08T13:22:54.157Z,26.71
2023-09-08T13:25:21.404Z,26.81
2023-09-08T13:27:49.350Z,26.87
2023-09-08T13:30:17.386Z,27.25
2023-09-08T13:32:45.942Z,27.48
2023-09-08T13:35:13.401Z,27.90
2023-09-08T13:37:40.522Z,27.33
2023-09-08T13:40:09.293Z,27.42
2023-09-08T13:42:37.079Z,26.95
2023-09-08T13:45:05.038Z,26.42
2023-09-08T13:47:32.999Z,26.50
2023-09-08T13:50:03.070Z,25.50
2023-09-08T13:52:33.353Z,25.62
2023-09-08T13:57:35.107Z,25.16
2023-09-08T14:00:04.812Z,25.74
2023-09-08T14:02:43.074Z,25.77
2023-09-08T14:05:11.530Z,25.88
2023-09-08T14:07:46.061Z,25.11
2023-09-08T14:10:27.298Z,25.87
2023-09-08T14:12:57.539Z,26.17
2023-09-08T14:15:24.699Z,25.71
2023-09-08T14:17:51.769Z,25.46
2023-09-08T14:20:18.698Z,26.10
2023-09-08T14:22:46.142Z,26.34
2023-09-08T14:25:14.448Z,26.53
2023-09-08T14:27:41.501Z,26.84
2023-09-08T14:30:08.808Z,26.90
2023-09-08T14:32:35.856Z,27.15
2023-09-08T14:35:03.032Z,27.82
2023-09-08T14:37:29.986Z,27.53
2023-09-08T14:39:56.947Z,27.48
2023-09-08T14:42:24.033Z,27.27
2023-09-08T14:44:52.823Z,27.45
2023-09-08T14:47:19.997Z,27.50
2023-09-08T14:49:47.648Z,27.45
2023-09-08T14:52:14.732Z,26.74
2023-09-08T14:54:42.358Z,27.16
2023-09-08T14:57:11.500Z,26.88
2023-09-08T14:59:38.479Z,27.12
2023-09-08T15:02:07.609Z,27.68
2023-09-08T15:04:35.808Z,27.81
2023-09-08T15:07:02.973Z,28.02
2023-09-08T15:09:29.943Z,27.60
2023-09-08T15:11:58.453Z,27.44
2023-09-08T15:14:27.788Z,27.71
2023-09-08T15:16:54.787Z,26.97
2023-09-08T15:19:21.793Z,26.87
2023-09-08T15:21:48.714Z,26.60
2023-09-08T15:24:19.535Z,26.40
2023-09-08T15:26:47.380Z,25.29
2023-09-08T15:29:14.964Z,25.33
2023-09-08T15:31:42.093Z,25.34
2023-09-08T15:34:09.085Z,24.89
2023-09-08T15:36:36.018Z,23.83
2023-09-08T15:39:05.165Z,24.25
2023-09-08T15:41:32.324Z,25.06
2023-09-08T15:43:59.276Z,25.44
2023-09-08T15:46:31.454Z,24.49
2023-09-08T15:48:58.448Z,23.63
2023-09-08T15:51:25.578Z,23.28
2023-09-08T15:53:54.708Z,24.73
2023-09-08T15:56:21.653Z,25.26
2023-09-08T15:58:52.968Z,25.98
2023-09-08T16:01:20.058Z,26.22
2023-09-08T16:03:47.748Z,24.33
2023-09-08T16:06:14.925Z,23.97
2023-09-08T16:08:41.883Z,23.28
2023-09-08T16:11:09.145Z,23.02
2023-09-08T16:13:36.348Z,22.98
2023-09-08T16:16:04.119Z,23.88
2023-09-08T16:18:34.497Z,24.41
2023-09-08T16:21:01.473Z,25.26
2023-09-08T16:23:30.858Z,25.24
2023-09-08T16:25:58.018Z,24.92
2023-09-08T16:28:25.253Z,25.57
2023-09-08T16:30:55.446Z,25.57
2023-09-08T16:33:22.523Z,25.73
2023-09-08T16:35:49.472Z,26.58
2023-09-08T16:38:16.454Z,27.24
2023-09-08T16:40:48.324Z,27.91
2023-09-08T16:43:21.172Z,28.47
2023-09-08T16:45:50.498Z,29.10
2023-09-08T16:48:17.682Z,29.81
2023-09-08T16:50:44.685Z,30.73
2023-09-08T16:53:12.736Z,31.12
2023-09-08T16:55:39.683Z,31.59
2023-09-08T16:58:06.705Z,32.17
2023-09-08T17:00:34.304Z,32.50
2023-09-08T17:03:01.619Z,33.31
2023-09-08T17:05:28.768Z,33.63
2023-09-08T17:07:57.899Z,34.17
2023-09-08T17:10:25.485Z,34.46
2023-09-08T17:12:52.669Z,34.76
2023-09-08T17:15:19.796Z,35.24
2023-09-08T17:17:46.933Z,35.39
2023-09-08T17:20:17.740Z,35.82
2023-09-08T17:22:48.862Z,36.00
2023-09-08T17:25:16.041Z,36.26
2023-09-08T17:27:44.708Z,36.55
2023-09-08T17:30:12.193Z,36.70
2023-09-08T17:32:39.179Z,37.32
2023-09-08T17:35:06.873Z,37.77
2023-09-08T17:37:34.369Z,38.65
2023-09-08T17:40:01.287Z,39.13
2023-09-08T17:42:28.268Z,40.09
2023-09-08T17:44:55.275Z,40.33
2023-09-08T17:47:22.267Z,40.98
2023-09-08T17:49:49.267Z,41.49
2023-09-08T17:52:16.339Z,41.79
2023-09-08T17:54:43.474Z,42.11
2023-09-08T17:57:10.514Z,42.45
2023-09-08T17:59:37.461Z,43.04
2023-09-08T18:02:06.169Z,43.31
2023-09-08T18:04:35.767Z,43.50
2023-09-08T18:07:04.705Z,44.07
2023-09-08T18:09:31.852Z,44.69
2023-09-08T18:11:58.822Z,44.71
2023-09-08T18:14:25.905Z,45.51
2023-09-08T18:16:53.637Z,46.15
2023-09-08T18:19:20.743Z,46.21
2023-09-08T18:21:47.738Z,46.88
2023-09-08T18:24:14.732Z,47.46
2023-09-08T18:26:41.787Z,47.43
2023-09-08T18:29:08.864Z,48.20
2023-09-08T18:31:36.118Z,48.37
2023-09-08T18:34:03.166Z,49.34
2023-09-08T18:36:30.632Z,49.46
2023-09-08T18:38:57.631Z,50.19
2023-09-08T18:41:24.661Z,50.55
2023-09-08T18:43:51.724Z,51.02
2023-09-08T18:46:18.939Z,51.40
2023-09-08T18:48:46.664Z,51.75
2023-09-08T18:51:14.077Z,51.86
2023-09-08T18:53:41.308Z,51.81
2023-09-08T18:56:08.353Z,52.37
2023-09-08T18:58:37.540Z,52.35
2023-09-08T19:01:05.799Z,52.22
2023-09-08T19:03:33.956Z,52.50
2023-09-08T19:06:01.096Z,52.60
2023-09-08T19:08:29.052Z,52.39
2023-09-08T19:10:57.715Z,52.27
2023-09-08T19:13:24.751Z,52.87
2023-09-08T19:15:52.007Z,52.67
2023-09-08T19:18:19.846Z,52.86
2023-09-08T19:20:47.243Z,53.04
2023-09-08T19:23:14.280Z,53.04
2023-09-08T19:25:43.385Z,53.15
2023-09-08T19:28:10.628Z,53.30
2023-09-08T19:30:37.695Z,53.39
2023-09-08T19:33:05.166Z,53.38
2023-09-08T19:35:36.133Z,53.70
2023-09-08T19:38:03.604Z,53.45
2023-09-08T19:40:30.709Z,53.29
2023-09-08T19:42:57.702Z,53.41
2023-09-08T19:45:25.387Z,53.20
2023-09-08T19:47:52.571Z,52.99
2023-09-08T19:50:19.800Z,52.91
2023-09-08T19:52:46.811Z,53.02
2023-09-08T19:55:13.908Z,53.32
2023-09-08T19:57:41.067Z,53.52
2023-09-08T20:00:09.335Z,53.51
2023-09-08T20:02:43.498Z,54.68
2023-09-08T20:05:11.404Z,56.24
2023-09-08T20:07:40.366Z,57.72
2023-09-08T20:10:10.436Z,59.05
2023-09-08T20:12:39.513Z,60.09
2023-09-08T20:15:07.154Z,61.15
2023-09-08T20:17:34.320Z,61.01
2023-09-08T20:20:01.423Z,61.29
2023-09-08T20:22:28.685Z,61.40
2023-09-08T20:24:55.753Z,61.33
2023-09-08T20:27:22.704Z,60.92
2023-09-08T20:29:53.723Z,60.97
2023-09-08T20:32:20.795Z,60.70
2023-09-08T20:34:47.710Z,60.81
2023-09-08T20:37:14.682Z,60.96
2023-09-08T20:39:41.728Z,60.70
2023-09-08T20:42:10.509Z,60.52
2023-09-08T20:44:37.478Z,60.69
2023-09-08T20:47:05.105Z,60.78
2023-09-08T20:49:32.055Z,60.66
2023-09-08T20:51:59.176Z,60.96
2023-09-08T20:54:26.256Z,60.86
2023-09-08T20:56:54.633Z,60.67
2023-09-08T20:59:24.488Z,60.60
2023-09-08T21:01:53.261Z,60.92
2023-09-08T21:04:20.815Z,61.17
2023-09-08T21:06:47.745Z,61.18
2023-09-08T21:09:15.003Z,61.03
2023-09-08T21:11:42.152Z,61.21
2023-09-08T21:14:10.051Z,61.68
2023-09-08T21:16:37.050Z,62.31
2023-09-08T21:19:04.299Z,62.48
2023-09-08T21:21:31.269Z,62.92
2023-09-08T21:23:58.208Z,62.93
2023-09-08T21:26:25.212Z,63.17
2023-09-08T21:28:52.165Z,62.89
2023-09-08T21:31:19.205Z,63.43
2023-09-08T21:33:47.372Z,63.42
2023-09-08T21:36:17.160Z,64.47
2023-09-08T21:38:44.235Z,64.15
2023-09-08T21:41:11.747Z,64.88
2023-09-08T21:43:39.720Z,65.83
2023-09-08T21:46:08.634Z,66.99
2023-09-08T21:48:37.158Z,67.23
2023-09-08T21:51:04.719Z,67.67
2023-09-08T21:53:32.026Z,68.76
2023-09-08T21:55:58.999Z,68.50
2023-09-08T21:58:27.635Z,68.90
2023-09-08T22:00:57.975Z,69.63
2023-09-08T22:03:25.186Z,70.69
2023-09-08T22:05:52.348Z,71.40
2023-09-08T22:08:20.306Z,70.94
2023-09-08T22:10:47.183Z,71.64
2023-09-08T22:13:15.342Z,72.24
2023-09-08T22:15:42.402Z,72.86
2023-09-08T22:18:09.499Z,72.65
2023-09-08T22:20:36.632Z,73.20
2023-09-08T22:23:03.829Z,73.41
2023-09-08T22:25:33.477Z,72.75
2023-09-08T22:28:03.792Z,74.05
2023-09-08T22:30:30.702Z,74.53
2023-09-08T22:32:57.778Z,75.06
2023-09-08T22:35:24.920Z,75.21
2023-09-08T22:37:52.931Z,75.62
2023-09-08T22:40:20.130Z,76.34
2023-09-08T22:42:47.127Z,76.01
2023-09-08T22:45:14.275Z,76.36
2023-09-08T22:47:41.345Z,76.76
2023-09-08T22:50:11.044Z,76.90
2023-09-08T22:52:41.319Z,77.69
2023-09-08T22:55:23.372Z,78.24
2023-09-08T22:57:52.622Z,78.82
2023-09-08T23:00:19.977Z,79.52
2023-09-08T23:02:49.975Z,79.72
2023-09-08T23:05:17.726Z,79.88
2023-09-08T23:07:45.556Z,80.07
2023-09-08T23:10:12.876Z,80.18
2023-09-08T23:12:40.082Z,81.15
2023-09-08T23:15:08.681Z,82.67
2023-09-08T23:17:35.808Z,83.68
2023-09-08T23:20:16.371Z,83.95
2023-09-08T23:22:44.751Z,84.84
2023-09-08T23:25:11.909Z,85.48
2023-09-08T23:27:38.952Z,86.41
2023-09-08T23:30:07.424Z,86.29
2023-09-08T23:32:34.490Z,86.38
2023-09-08T23:35:02.006Z,86.89
2023-09-08T23:37:28.982Z,86.33
2023-09-08T23:39:55.920Z,87.61
2023-09-08T23:42:23.078Z,87.71
2023-09-08T23:44:50.069Z,88.18
2023-09-08T23:47:17.135Z,89.08
2023-09-08T23:49:44.490Z,89.40
2023-09-08T23:52:11.396Z,89.03
2023-09-08T23:54:38.337Z,89.34
2023-09-08T23:57:05.779Z,88.99
2023-09-08T23:59:32.945Z,89.36
